Jamie Marie — WDE7178 — position and weather

sailwx.info

Track history (hours):
 
Tides and Currents Weather Stations Pressure Air Temp Water Temp Dewpoint Dewpoint Depression Visibility Wind Speed Wind Dir Waves Ship Positions

Jamie Marie

Owner: Jamie Marie, Inc., Aberdeen, WA. More information available from US FCC via Universal Licensing System and Coast Guard Vessel Documentation Center.

Last reported at 2015-Feb-24 20:23 UTC. Time now 2015-Mar-05 04:11 UTC.
Position N 46°05' W 124°19'.
Warning: this ship's position is 8 days out of date.

Length 30 m.

Type: Fishing. MMSI: 366425240.

Date/timePositionNaut miles runAvg speedWind from/ knotsBaromVisibWave heightAir tempDewpointWater temp
2015-Feb-24 20:23N 46°05' W 124°19'2 1.7
2015-Feb-24 19:22N 46°06' W 124°17'2 1.8
2015-Feb-24 18:18N 46°04' W 124°17'2 0.8
2015-Feb-24 15:34N 46°06' W 124°15'0 0.4
2015-Feb-24 14:33N 46°07' W 124°15'1 0.5
2015-Feb-24 13:33N 46°07' W 124°16'0 0.3
2015-Feb-24 12:25N 46°07' W 124°16'0 0.0
2015-Feb-24 10:28N 46°07' W 124°16'7 3.6
2015-Feb-24 08:32N 46°13' W 124°19'3 3.2
2015-Feb-24 07:31N 46°17' W 124°20'0 0.2
2015-Feb-24 05:15N 46°17' W 124°20'3 1.5
2015-Feb-24 03:25N 46°20' W 124°21'3 1.7
2015-Feb-24 01:22N 46°23' W 124°22'  
2015-Feb-19 00:11N 46°07' W 124°17'2 2.2
2015-Feb-18 23:26N 46°05' W 124°19'2 1.6
2015-Feb-18 22:11N 46°04' W 124°17'  
Track history (hours):
 
Tides and Currents Weather Stations Pressure Air Temp Water Temp Dewpoint Dewpoint Depression Visibility Wind Speed Wind Dir Waves Ship Positions

Jamie Marie

Owner: Jamie Marie, Inc., Aberdeen, WA. More information available from US FCC via Universal Licensing System and Coast Guard Vessel Documentation Center.

Last reported at 2015-Feb-24 20:23 UTC. Time now 2015-Mar-05 04:11 UTC.
Position N 46°05' W 124°19'.
Warning: this ship's position is 8 days out of date.

Length 30 m.

Type: Fishing. MMSI: 366425240.

Date/timePositionNaut miles runAvg speedWind from/ knotsBaromVisibWave heightAir tempDewpointWater temp
2015-Feb-24 20:23N 46°05' W 124°19'2 1.7
2015-Feb-24 19:22N 46°06' W 124°17'2 1.8
2015-Feb-24 18:18N 46°04' W 124°17'2 0.8
2015-Feb-24 15:34N 46°06' W 124°15'0 0.4
2015-Feb-24 14:33N 46°07' W 124°15'1 0.5
2015-Feb-24 13:33N 46°07' W 124°16'0 0.3
2015-Feb-24 12:25N 46°07' W 124°16'0 0.0
2015-Feb-24 10:28N 46°07' W 124°16'7 3.6
2015-Feb-24 08:32N 46°13' W 124°19'3 3.2
2015-Feb-24 07:31N 46°17' W 124°20'0 0.2
2015-Feb-24 05:15N 46°17' W 124°20'3 1.5
2015-Feb-24 03:25N 46°20' W 124°21'3 1.7
2015-Feb-24 01:22N 46°23' W 124°22'  
2015-Feb-19 00:11N 46°07' W 124°17'2 2.2
2015-Feb-18 23:26N 46°05' W 124°19'2 1.6
2015-Feb-18 22:11N 46°04' W 124°17'  

Dump ship's entire track history